Time;durP1;ratioP1;P1;durP2;ratioP2;P2;SDS_P1;SDS_P2;PMS_P1;PMS_P2;Temp;Humidity;BMP_temperature;BMP_pressure;BME280_temperature;BME280_humidity;BME280_pressure;Samples;Min_cycle;Max_cycle;Signal;HPM_P1;HPM_P2
2022/06/23 00:00:26;;;;;;;4.82;2.53;;;14.80;1.00;;;15.34;99.12;98785.91;5025935;27;114773;-75
2022/06/23 00:02:56;;;;;;;4.43;2.58;;;14.70;1.00;;;15.34;98.55;98796.84;5040012;27;130073;-76
2022/06/23 00:05:30;;;;;;;5.97;2.63;;;14.60;1.00;;;15.30;98.76;98787.00;5025363;27;128796;-74
2022/06/23 00:08:01;;;;;;;4.88;2.22;;;14.70;1.00;;;15.26;98.49;98785.00;5022180;27;118525;-75
2022/06/23 00:10:38;;;;;;;6.10;2.55;;;14.70;1.00;;;15.20;99.07;98799.31;5041004;27;115171;-75
2022/06/23 00:13:14;;;;;;;5.10;2.50;;;14.70;1.00;;;15.18;99.14;98788.75;5040398;27;130708;-72
2022/06/23 00:15:45;;;;;;;7.05;2.25;;;14.70;1.00;;;15.14;99.41;98787.09;5025401;27;128813;-75
2022/06/23 00:18:21;;;;;;;5.35;2.50;;;14.70;1.00;;;15.12;99.14;98800.31;5040301;27;119213;-75
2022/06/23 00:20:55;;;;;;;4.50;2.47;;;14.60;1.00;;;15.13;99.55;98790.97;5040273;27;115237;-74
2022/06/23 00:23:29;;;;;;;6.03;2.55;;;14.60;1.00;;;15.14;100.00;98792.53;5039460;27;130287;-74
2022/06/23 00:26:03;;;;;;;5.30;2.38;;;14.50;1.00;;;15.09;100.00;98805.34;5039765;27;129719;-73
2022/06/23 00:28:37;;;;;;;4.97;2.55;;;14.40;1.00;;;15.06;100.00;98802.53;5039689;27;119229;-76
2022/06/23 00:31:08;;;;;;;5.25;2.70;;;14.40;1.00;;;14.99;100.00;98803.19;5040368;27;115403;-76
2022/06/23 00:33:41;;;;;;;4.25;2.75;;;14.30;1.00;;;14.91;100.00;98801.44;5025015;27;129726;-74
2022/06/23 00:36:18;;;;;;;6.57;2.90;;;14.20;1.00;;;14.80;100.00;98789.47;5039704;27;129210;-76
2022/06/23 00:38:48;;;;;;;6.35;3.03;;;14.20;1.00;;;14.78;100.00;98798.03;5040993;27;118978;-76
2022/06/23 00:41:22;;;;;;;5.43;3.00;;;14.20;1.00;;;14.77;100.00;98806.59;5022168;27;115067;-75
2022/06/23 00:43:53;;;;;;;4.70;2.78;;;14.10;1.00;;;14.70;100.00;98801.75;5039479;27;130337;-76
2022/06/23 00:46:26;;;;;;;4.90;2.72;;;14.00;1.00;;;14.58;100.00;98799.91;5024479;27;128566;-75
2022/06/23 00:49:03;;;;;;;7.22;2.58;;;13.90;1.00;;;14.49;100.00;98796.56;5021638;27;118938;-76
2022/06/23 00:51:41;;;;;;;5.55;2.83;;;13.90;1.00;;;14.44;100.00;98805.03;5024940;27;114792;-77
2022/06/23 00:54:21;;;;;;;5.57;2.85;;;13.80;1.00;;;14.41;100.00;98803.00;5039726;27;130688;-76
2022/06/23 00:56:59;;;;;;;5.50;3.00;;;13.70;1.00;;;14.32;100.00;98812.19;5040032;27;129540;-76
2022/06/23 00:59:35;;;;;;;5.78;3.00;;;13.70;1.00;;;14.28;100.00;98811.28;5039935;27;119240;-76
2022/06/23 01:02:08;;;;;;;;;;;13.70;1.00;;;14.14;100.00;98813.69;5025988;27;115587;-76
2022/06/23 01:04:46;;;;;;;6.50;2.72;;;13.50;1.00;;;14.09;100.00;98813.94;5028242;27;129316;-76
2022/06/23 01:07:34;;;;;;;6.57;2.90;;;13.50;1.00;;;14.03;100.00;98816.91;5043015;27;129765;-75
2022/06/23 01:10:14;;;;;;;6.13;3.20;;;13.50;1.00;;;13.99;100.00;98821.50;5043383;27;118861;-75
2022/06/23 01:12:48;;;;;;;5.03;2.90;;;13.50;1.00;;;13.96;100.00;98824.94;5043526;27;115119;-75
2022/06/23 01:15:31;;;;;;;8.10;2.85;;;13.50;1.00;;;13.88;100.00;98825.88;5027752;27;130167;-75
2022/06/23 01:18:08;;;;;;;6.20;2.92;;;13.40;1.00;;;13.84;100.00;98827.72;5042943;27;129886;-76
2022/06/23 01:20:49;;;;;;;6.55;2.60;;;13.40;1.00;;;13.76;100.00;98832.22;5042998;27;119382;-76
2022/06/23 01:23:50;;;;;;;4.78;2.60;;;13.40;1.00;;;13.66;100.00;98828.06;5043145;27;114816;-74
2022/06/23 01:26:57;;;;;;;5.97;2.53;;;13.30;1.00;;;13.70;100.00;98839.06;5039052;27;128941;-75
2022/06/23 01:29:33;;;;;;;5.25;2.88;;;13.30;1.00;;;13.64;100.00;98827.59;5038109;27;129734;-76
2022/06/23 01:32:17;;;;;;;4.40;2.60;;;13.20;1.00;;;13.61;100.00;98838.41;5033286;27;119211;-74
2022/06/23 01:34:52;;;;;;;6.40;3.10;;;13.10;1.00;;;13.58;100.00;98834.44;5024839;27;114734;-75
2022/06/23 01:37:28;;;;;;;4.83;2.87;;;13.10;1.00;;;13.52;100.00;98838.56;5042470;27;130521;-77
2022/06/23 01:40:09;;;;;;;6.30;3.10;;;13.00;1.00;;;13.46;100.00;98837.22;5044994;27;129894;-75
2022/06/23 01:42:48;;;;;;;5.15;3.03;;;13.00;1.00;;;13.43;100.00;98835.19;5027420;27;118310;-76
2022/06/23 01:45:24;;;;;;;5.00;2.92;;;12.90;9.50;;;13.41;100.00;98842.91;5024528;27;115678;-74
2022/06/23 01:48:00;;;;;;;4.97;3.05;;;12.90;34.90;;;13.37;100.00;98842.00;5027176;27;129854;-75
2022/06/23 01:50:42;;;;;;;5.65;3.00;;;12.90;71.40;;;13.37;100.00;98850.19;5042382;27;130030;-75
2022/06/23 01:53:25;;;;;;;5.53;2.80;;;12.90;90.30;;;13.36;100.00;98862.25;5042601;27;118897;-75
2022/06/23 01:56:19;;;;;;;5.05;3.00;;;13.00;93.10;;;13.34;100.00;98859.06;5042554;27;115679;-75
2022/06/23 01:59:02;;;;;;;4.80;2.80;;;13.00;90.40;;;13.38;100.00;98855.28;5027281;27;129652;-76
2022/06/23 02:01:38;;;;;;;5.22;2.95;;;13.00;76.80;;;13.41;100.00;98853.81;5042555;27;129734;-75
2022/06/23 02:04:18;;;;;;;8.50;3.20;;;13.00;63.50;;;13.36;100.00;98862.25;5042599;27;118981;-75
2022/06/23 02:06:53;;;;;;;7.63;2.88;;;13.00;47.60;;;13.41;100.00;98864.72;5027533;27;115318;-74
2022/06/23 02:09:33;;;;;;;6.72;2.97;;;13.00;32.60;;;13.40;100.00;98869.38;5041797;27;129583;-74
2022/06/23 02:12:02;;;;;;;6.00;3.08;;;13.00;27.30;;;13.43;100.00;98873.34;5026681;27;128559;-74
2022/06/23 02:14:53;;;;;;;7.32;3.03;;;13.00;22.10;;;13.45;100.00;98871.06;5042313;27;119629;-74
2022/06/23 02:17:45;;;;;;;5.80;3.28;;;13.00;17.80;;;13.53;100.00;98883.75;5042574;27;115161;-76
2022/06/23 02:20:40;;;;;;;6.47;3.40;;;12.90;15.20;;;13.54;100.00;98885.34;5010373;27;129874;-74
2022/06/23 02:23:22;;;;;;;5.63;2.90;;;13.00;6.50;;;13.58;100.00;98891.69;5041649;27;130708;-75
2022/06/23 02:26:13;;;;;;;8.27;3.22;;;12.90;1.00;;;13.52;100.00;98892.28;5026863;27;118012;-73
2022/06/23 02:28:50;;;;;;;7.47;3.13;;;12.90;1.00;;;13.65;100.00;98888.38;5027391;27;114198;-72
2022/06/23 02:31:26;;;;;;;5.70;2.97;;;13.00;1.00;;;13.68;100.00;98884.16;5041709;27;130098;-74
2022/06/23 02:34:15;;;;;;;5.40;2.90;;;13.00;1.00;;;13.76;100.00;98885.94;5041739;27;129830;-74
2022/06/23 02:37:08;;;;;;;6.50;3.65;;;13.00;1.00;;;13.76;100.00;98894.13;5041907;27;118805;-76
2022/06/23 02:39:48;;;;;;;6.07;3.40;;;13.00;1.00;;;13.83;100.00;98897.03;5043989;27;115719;-75
2022/06/23 02:42:26;;;;;;;8.00;2.97;;;13.00;1.00;;;13.85;100.00;98889.31;5042266;27;129883;-75
2022/06/23 02:45:21;;;;;;;4.85;2.92;;;13.10;1.00;;;13.88;100.00;98899.50;5030868;27;129032;-76
2022/06/23 02:48:17;;;;;;;5.43;3.20;;;13.10;1.00;;;13.95;100.00;98899.72;5045192;27;118972;-75
2022/06/23 02:51:18;;;;;;;6.10;2.80;;;13.10;1.00;;;13.98;100.00;98901.75;5044230;27;115294;-75
2022/06/23 02:54:39;;;;;;;4.82;2.58;;;13.20;1.00;;;14.22;100.00;98902.75;5041703;27;130734;-75
2022/06/23 02:57:32;;;;;;;5.65;2.65;;;13.30;1.00;;;15.25;100.00;98905.63;5027982;27;129707;-75
2022/06/23 03:00:09;;;;;;;6.20;2.40;;;13.80;1.00;;;16.51;93.86;98911.59;5041803;27;119021;-76
2022/06/23 03:02:44;;;;;;;6.47;2.40;;;14.40;1.00;;;17.02;87.57;98917.91;5023260;27;114798;-75
2022/06/23 03:05:23;;;;;;;3.23;1.90;;;14.50;1.00;;;17.85;82.58;98925.25;5026222;27;129659;-76
2022/06/23 03:08:00;;;;;;;5.78;2.10;;;14.80;1.00;;;18.81;77.18;98927.41;5040845;27;129558;-75
2022/06/23 03:10:37;;;;;;;4.40;2.17;;;15.40;1.00;;;19.63;71.43;98926.34;5041417;27;119517;-75
2022/06/23 03:13:16;;;;;;;4.93;2.03;;;15.80;99.90;;;20.58;68.64;98928.97;5041435;27;115387;-74
2022/06/23 03:15:54;;;;;;;4.05;2.05;;;16.40;99.90;;;20.87;65.22;98919.97;5040957;27;130155;-74
2022/06/23 03:18:30;;;;;;;4.50;1.90;;;16.50;99.90;;;20.66;65.99;98927.03;5041207;27;129674;-74
2022/06/23 03:21:03;;;;;;;3.90;2.17;;;16.40;99.90;;;20.27;67.17;98933.28;5039317;27;118772;-76
2022/06/23 03:23:44;;;;;;;3.45;1.95;;;16.20;99.90;;;20.13;66.33;98933.25;5039206;27;115724;-77
2022/06/23 03:26:22;;;;;;;5.43;1.90;;;16.00;99.90;;;19.93;67.45;98928.09;5040914;27;131127;-74
2022/06/23 03:28:57;;;;;;;5.25;2.28;;;16.10;99.90;;;18.92;70.96;98933.03;5040596;27;129150;-74
2022/06/23 03:31:32;;;;;;;4.95;2.53;;;15.50;99.90;;;18.56;72.95;98935.44;5040817;27;118827;-75
2022/06/23 03:34:12;;;;;;;7.28;2.42;;;15.20;99.90;;;17.56;77.80;98927.66;5041345;27;116336;-75
2022/06/23 03:36:46;;;;;;;6.40;2.60;;;14.70;1.00;;;17.05;80.95;98942.63;5040779;27;130113;-75
2022/06/23 03:42:17;;;;;;;4.15;2.65;;;14.40;1.00;;;16.41;85.09;98950.56;5040751;27;118948;-75
2022/06/23 03:44:54;;;;;;;5.53;2.78;;;14.40;1.00;;;16.58;85.82;98949.28;5040588;27;115411;-74
2022/06/23 03:47:33;;;;;;;8.20;2.75;;;14.60;1.00;;;16.35;86.35;98946.53;5040497;27;129953;-74
2022/06/23 03:50:15;;;;;;;5.82;2.97;;;14.70;1.00;;;16.36;86.84;98959.03;5024514;27;129865;-78
2022/06/23 03:52:51;;;;;;;6.13;2.80;;;14.70;1.00;;;15.97;88.45;98959.09;5027723;27;118534;-77
2022/06/23 03:55:26;;;;;;;5.03;2.60;;;14.50;1.00;;;15.75;90.21;98955.91;5022507;28;114887;-77
2022/06/23 03:58:00;;;;;;;5.23;2.50;;;14.40;1.00;;;15.76;91.31;98968.41;5034872;27;129899;-76
2022/06/23 04:00:36;;;;;;;5.97;2.40;;;14.70;1.00;;;15.99;90.43;98967.75;5040593;27;129430;-75
2022/06/23 04:03:23;;;;;;;4.60;2.60;;;14.90;1.00;;;16.32;89.05;98969.94;5009177;27;117624;-75
2022/06/23 04:06:23;;;;;;;5.15;2.30;;;15.30;1.00;;;16.09;89.72;98966.38;5041226;27;115145;-78
2022/06/23 04:09:02;;;;;;;6.53;2.58;;;15.00;1.00;;;16.01;90.99;98979.13;5040697;27;130313;-77
2022/06/23 04:11:46;;;;;;;9.95;3.03;;;15.00;1.00;;;15.93;91.37;98978.19;5040411;27;129658;-76
2022/06/23 04:14:30;;;;;;;4.55;2.70;;;14.80;1.00;;;15.63;93.02;98983.41;5040787;27;118664;-79
2022/06/23 04:17:12;;;;;;;4.60;2.45;;;14.80;1.00;;;15.51;94.65;98980.78;5009161;27;115311;-78
2022/06/23 04:19:45;;;;;;;6.75;2.78;;;14.70;1.00;;;15.33;95.06;98986.63;5024931;27;129346;-75
2022/06/23 04:22:25;;;;;;;5.47;2.42;;;14.70;1.00;;;15.39;94.91;98987.16;5059427;27;129261;-77
2022/06/23 04:25:00;;;;;;;5.63;2.60;;;14.70;1.00;;;15.36;95.01;98987.88;5040235;27;118950;-77
2022/06/23 04:27:38;;;;;;;4.13;2.22;;;14.60;1.00;;;15.41;94.98;98993.84;5039903;27;115708;-78
2022/06/23 04:30:18;;;;;;;4.78;2.80;;;14.60;1.00;;;15.51;95.17;98997.19;5021747;27;129882;-78
2022/06/23 04:32:51;;;;;;;6.55;2.65;;;14.70;1.00;;;15.48;94.99;98998.69;5040128;27;130001;-77
2022/06/23 04:35:26;;;;;;;5.03;2.53;;;14.70;1.00;;;15.47;94.87;98997.09;5040397;27;118904;-78
2022/06/23 04:38:03;;;;;;;4.43;2.47;;;14.80;1.00;;;15.81;94.01;99003.72;5025636;27;114234;-78
2022/06/23 04:40:39;;;;;;;5.22;2.50;;;15.10;1.00;;;16.20;91.94;99000.22;5021390;27;130000;-76
2022/06/23 04:43:19;;;;;;;6.05;2.72;;;15.40;1.00;;;16.06;90.68;98995.25;5039773;27;129235;-76
2022/06/23 04:45:59;;;;;;;5.20;2.80;;;15.40;1.00;;;15.95;92.62;98997.75;5039991;27;118868;-76
2022/06/23 04:48:40;;;;;;;3.85;2.05;;;15.30;1.00;;;15.94;92.05;99003.59;5040663;27;115756;-74
2022/06/23 04:51:26;;;;;;;4.18;2.65;;;15.20;1.00;;;15.82;92.69;99007.28;5024722;27;129635;-76
2022/06/23 04:54:01;;;;;;;7.28;2.67;;;15.10;1.00;;;16.12;91.39;98999.28;5039951;27;129966;-76
2022/06/23 04:56:43;;;;;;;5.28;2.53;;;15.10;1.00;;;16.40;89.88;99009.19;5039911;27;118783;-77
2022/06/23 04:59:36;;;;;;;6.38;2.70;;;15.40;1.00;;;16.44;89.29;99010.06;5022599;27;115406;-76
2022/06/23 05:02:20;;;;;;;6.55;2.83;;;15.60;1.00;;;16.95;86.98;99002.75;5024915;27;129473;-77
2022/06/23 05:05:00;;;;;;;5.43;2.55;;;15.90;1.00;;;17.46;85.57;99013.34;5039780;27;129644;-77
2022/06/23 05:07:34;;;;;;;4.13;2.65;;;16.30;1.00;;;17.45;84.94;99009.00;5025116;27;118617;-77
2022/06/23 05:10:07;;;;;;;9.10;2.60;;;16.30;99.90;;;17.41;86.12;99027.38;5021994;27;115518;-77
2022/06/23 05:12:39;;;;;;;6.20;2.33;;;16.30;1.00;;;17.24;85.76;99023.97;5039246;27;129573;-78
2022/06/23 05:15:17;;;;;;;3.67;2.38;;;16.30;99.90;;;17.13;86.57;99016.75;5039747;27;129367;-79
2022/06/23 05:17:54;;;;;;;3.17;2.17;;;16.30;99.90;;;16.70;87.95;99019.53;5041452;27;118811;-77
2022/06/23 05:20:31;;;;;;;5.15;2.55;;;16.00;99.90;;;16.72;88.88;99017.22;5040195;27;115907;-76
2022/06/23 05:23:02;;;;;;;4.10;2.55;;;16.10;1.00;;;17.02;87.77;99028.34;5024851;27;130293;-74
2022/06/23 05:25:39;;;;;;;4.45;2.40;;;16.30;99.90;;;17.43;86.51;99020.34;5038190;27;129832;-79
2022/06/23 05:28:16;;;;;;;4.93;2.53;;;16.60;99.90;;;17.53;84.71;99021.69;5024904;27;118683;-78
2022/06/23 05:30:56;;;;;;;6.50;2.95;;;16.60;99.90;;;17.09;88.61;99016.69;5040144;27;115018;-75
2022/06/23 05:33:28;;;;;;;6.85;2.40;;;16.40;99.90;;;17.22;88.11;99015.34;5024652;27;129027;-79
2022/06/23 05:36:04;;;;;;;6.00;2.45;;;16.50;99.90;;;16.78;87.99;99024.00;5021512;27;130231;-78
2022/06/23 05:38:40;;;;;;;5.27;2.60;;;16.30;99.90;;;17.22;87.70;99020.81;5039918;27;118758;-79
2022/06/23 05:41:16;;;;;;;;;;;16.60;99.90;;;17.16;87.77;99016.81;5021934;27;115455;-81
2022/06/23 05:43:46;;;;;;;6.25;2.85;;;16.60;99.90;;;17.47;85.90;99025.91;5039429;27;130957;-79
2022/06/23 05:46:21;;;;;;;6.00;2.63;;;16.80;99.90;;;17.91;84.79;99022.63;5025271;27;128399;-78
2022/06/23 05:48:59;;;;;;;6.78;3.03;;;17.10;99.90;;;17.83;83.53;99020.91;5028078;27;118278;-74
2022/06/23 05:51:37;;;;;;;5.78;2.55;;;17.20;99.90;;;17.96;82.28;99019.53;5043769;27;113871;-78
2022/06/23 05:54:16;;;;;;;4.65;2.20;;;17.30;99.90;;;17.92;81.35;99029.69;5047766;27;129806;-79
2022/06/23 05:56:52;;;;;;;3.33;1.83;;;17.30;99.90;;;18.19;78.95;99037.88;5031250;27;128464;-78
2022/06/23 05:59:29;;;;;;;5.13;2.20;;;17.60;99.90;;;18.04;78.17;99036.09;5063473;27;119458;-73
2022/06/23 06:02:09;;;;;;;3.80;2.10;;;17.40;99.90;;;18.06;79.21;99033.78;5063416;27;115075;-78
2022/06/23 06:04:46;;;;;;;3.83;1.75;;;17.40;99.90;;;18.28;78.36;99032.09;5064980;27;129506;-78
2022/06/23 06:07:19;;;;;;;4.95;1.95;;;17.50;99.90;;;18.23;79.06;99027.72;5063450;27;129174;-77
2022/06/23 06:09:49;;;;;;;3.30;2.08;;;17.60;99.90;;;18.53;77.87;99028.81;5062580;27;118915;-78
2022/06/23 06:12:23;;;;;;;3.92;2.00;;;17.80;99.90;;;18.64;76.63;99022.28;5063054;27;115716;-78
2022/06/23 06:14:58;;;;;;;5.05;2.15;;;17.90;99.90;;;18.62;75.76;99021.88;5047712;27;129974;-80
2022/06/23 06:17:32;;;;;;;6.22;2.60;;;17.90;99.90;;;18.83;75.47;99025.97;5047436;27;128806;-78
2022/06/23 06:20:09;;;;;;;5.25;2.30;;;18.00;99.90;;;19.04;75.23;99031.72;5047776;27;117814;-74
2022/06/23 06:22:52;;;;;;;4.40;2.17;;;18.20;99.90;;;19.30;72.59;99032.69;5062596;27;115004;-79
2022/06/23 06:25:27;;;;;;;3.42;1.90;;;18.40;99.90;;;19.40;72.53;99028.44;5062336;27;130546;-76
2022/06/23 06:28:01;;;;;;;3.45;1.98;;;18.50;99.90;;;19.38;72.95;99028.84;5062088;27;129681;-80
2022/06/23 06:30:37;;;;;;;4.07;1.90;;;18.50;99.90;;;19.52;73.54;99038.34;5062675;27;119453;-76
2022/06/23 06:33:10;;;;;;;5.32;2.17;;;18.70;99.90;;;19.75;72.90;99041.63;5047841;27;114624;-79
2022/06/23 06:35:44;;;;;;;4.88;1.90;;;18.90;99.90;;;19.82;73.69;99035.41;5062459;27;130522;-76
2022/06/23 06:38:17;;;;;;;3.70;2.15;;;18.80;99.90;;;20.11;70.98;99036.31;5061100;27;130533;-79
2022/06/23 06:40:50;;;;;;;4.80;2.28;;;19.10;99.90;;;20.04;71.85;99044.56;5063120;27;119094;-79
2022/06/23 06:43:22;;;;;;;4.18;2.10;;;19.10;99.90;;;20.06;72.48;99044.97;5062797;27;114759;-78
2022/06/23 06:45:51;;;;;;;5.45;2.10;;;19.10;99.90;;;20.15;71.89;99052.09;5047285;27;129527;-76
2022/06/23 06:48:26;;;;;;;6.32;2.22;;;19.20;99.90;;;20.44;69.51;99053.78;5062608;27;129640;-74
2022/06/23 06:51:00;;;;;;;5.45;2.30;;;19.40;99.90;;;20.10;69.53;99056.81;5060467;27;119040;-72
2022/06/23 06:53:34;;;;;;;4.55;2.60;;;19.30;99.90;;;20.18;69.81;99062.31;5062618;27;115611;-77
2022/06/23 06:56:13;;;;;;;4.50;2.33;;;19.50;99.90;;;20.53;69.75;99056.16;5062085;27;129900;-77
2022/06/23 06:58:47;;;;;;;5.60;2.40;;;19.70;99.90;;;20.50;68.49;99056.16;5047199;27;129067;-74
2022/06/23 07:01:21;;;;;;;6.30;2.45;;;19.60;99.90;;;20.41;70.04;99060.06;5043931;27;119369;-77
2022/06/23 07:03:54;;;;;;;4.40;2.00;;;19.60;99.90;;;20.64;69.34;99050.69;5030807;27;115343;-78
2022/06/23 07:06:32;;;;;;;4.45;2.30;;;19.80;99.90;;;20.70;69.18;99060.16;5062192;27;130801;-78
2022/06/23 07:09:09;;;;;;;6.13;2.28;;;19.80;99.90;;;20.81;69.46;99063.72;5056931;27;129248;-74
2022/06/23 07:11:48;;;;;;;5.70;2.53;;;20.00;99.90;;;20.99;69.17;99065.75;5024050;27;118426;-76
2022/06/23 07:14:24;;;;;;;5.60;2.25;;;20.20;99.90;;;21.43;67.06;99072.84;5043124;27;114142;-75
2022/06/23 07:16:59;;;;;;;8.88;2.85;;;20.30;99.90;;;21.52;66.23;99069.72;5039988;27;130181;-72
2022/06/23 07:19:36;;;;;;;6.03;2.17;;;20.40;99.90;;;21.70;66.84;99062.19;5026063;27;129431;-76
2022/06/23 07:22:16;;;;;;;5.38;2.22;;;20.60;99.90;;;21.60;66.38;99071.28;5042009;27;119050;-76
2022/06/23 07:24:51;;;;;;;6.00;2.00;;;20.60;99.90;;;21.52;66.42;99081.53;5042259;27;115106;-79
2022/06/23 07:27:27;;;;;;;3.70;2.10;;;20.60;99.90;;;21.69;64.17;99084.66;5040655;27;130105;-75
2022/06/23 07:30:01;;;;;;;3.63;2.10;;;20.70;99.90;;;21.75;66.40;99085.84;5042906;27;129567;-73
2022/06/23 07:32:40;;;;;;;6.38;2.38;;;20.70;99.90;;;21.72;67.04;99094.91;5022960;28;118643;-76
2022/06/23 07:35:29;;;;;;;4.95;2.58;;;20.70;99.90;;;21.64;66.71;99087.84;5026617;27;115117;-75
2022/06/23 07:38:06;;;;;;;4.78;2.17;;;20.80;99.90;;;21.62;65.52;99092.97;5026114;27;129099;-78
2022/06/23 07:40:48;;;;;;;;;;;20.70;99.90;;;21.75;65.39;99088.59;5043349;27;128614;-77
2022/06/23 07:43:24;;;;;;;4.35;2.00;;;21.00;99.90;;;22.16;62.30;99090.88;5041523;27;120036;-77
2022/06/23 07:45:57;;;;;;;4.65;2.10;;;21.30;99.90;;;22.57;63.27;99093.09;5026866;27;113592;-76
2022/06/23 07:48:28;;;;;;;4.40;1.90;;;21.60;99.90;;;22.81;61.42;99104.44;5026098;27;129639;-76
2022/06/23 07:51:00;;;;;;;5.43;2.40;;;21.70;99.90;;;22.70;61.55;99092.66;5022688;27;130693;-80
2022/06/23 07:53:33;;;;;;;6.03;2.60;;;21.70;99.90;;;22.97;62.12;99098.44;5026285;27;118477;-75
2022/06/23 07:56:03;;;;;;;5.60;2.00;;;21.70;99.90;;;22.82;63.44;99089.41;5060291;27;115397;-73
2022/06/23 07:58:36;;;;;;;5.00;2.28;;;21.80;99.90;;;22.80;64.44;99102.88;5040249;27;130067;-76
2022/06/23 08:01:12;;;;;;;5.10;2.08;;;21.70;99.90;;;22.91;61.64;99100.81;5026100;27;128905;-77
2022/06/23 08:03:51;;;;;;;5.18;2.03;;;21.90;99.90;;;22.77;61.42;99100.91;5042847;27;118285;-76
2022/06/23 08:06:21;;;;;;;5.28;2.03;;;21.70;99.90;;;22.81;56.53;99112.72;5040817;27;115101;-76
2022/06/23 08:08:55;;;;;;;4.40;2.00;;;21.70;99.90;;;23.02;57.22;99116.59;5039680;27;130799;-78
2022/06/23 08:14:18;;;;;;;3.25;2.00;;;22.20;99.90;;;23.10;55.38;99126.44;5040549;27;119516;-79
2022/06/23 08:16:51;;;;;;;4.40;1.85;;;22.10;99.90;;;23.15;53.80;99117.69;5040389;27;115058;-73
2022/06/23 08:19:33;;;;;;;3.33;1.83;;;22.10;99.90;;;23.05;54.50;99115.78;5041641;27;129334;-76
2022/06/23 08:22:11;;;;;;;3.85;1.85;;;21.90;99.90;;;23.76;55.02;99119.19;5040576;27;131355;-78
2022/06/23 08:24:41;;;;;;;5.40;2.47;;;22.70;99.90;;;23.68;54.48;99124.81;5025337;27;117788;-77
2022/06/23 08:27:14;;;;;;;4.10;2.00;;;22.40;99.90;;;24.24;51.49;99126.63;5024853;27;114216;-77
2022/06/23 08:29:48;;;;;;;3.40;1.85;;;22.70;99.90;;;23.56;52.45;99121.72;5040379;27;130106;-77
2022/06/23 08:32:17;;;;;;;3.25;2.15;;;22.40;99.90;;;23.25;53.15;99130.69;5040106;27;129459;-78
2022/06/23 08:34:52;;;;;;;3.25;1.90;;;22.10;99.90;;;22.89;53.47;99128.13;5040284;27;119736;-76
2022/06/23 08:37:25;;;;;;;3.60;2.07;;;21.80;99.90;;;22.89;52.15;99130.06;5025981;27;114092;-77
2022/06/23 08:40:01;;;;;;;3.60;1.73;;;21.80;99.90;;;22.85;52.48;99141.16;5042412;27;130298;-76
2022/06/23 08:42:40;;;;;;;5.75;2.03;;;21.90;99.90;;;23.01;52.38;99143.44;5021837;27;130804;-74
2022/06/23 08:45:22;;;;;;;5.03;2.03;;;21.90;99.90;;;22.69;56.35;99138.06;5040092;27;119015;-80
2022/06/23 08:47:59;;;;;;;3.92;1.58;;;21.70;99.90;;;22.88;57.75;99140.38;5039565;27;115716;-80
2022/06/23 08:50:37;;;;;;;3.85;1.75;;;21.80;99.90;;;23.10;57.50;99134.75;5040080;27;130057;-77
2022/06/23 08:53:18;;;;;;;2.97;1.70;;;22.00;99.90;;;23.03;54.12;99151.34;5039590;27;129481;-76
2022/06/23 08:55:54;;;;;;;3.85;1.65;;;21.80;99.90;;;23.10;53.99;99145.81;5040485;27;119451;-78
2022/06/23 08:58:30;;;;;;;6.70;2.42;;;21.90;99.90;;;23.85;53.99;99144.44;5043817;27;114121;-76
2022/06/23 09:01:09;;;;;;;8.55;2.55;;;22.40;99.90;;;24.12;52.33;99152.09;5026627;27;129407;-74
2022/06/23 09:03:48;;;;;;;5.10;2.22;;;22.80;99.90;;;24.11;50.76;99156.09;5027418;27;128808;-74
2022/06/23 09:06:34;;;;;;;3.45;1.90;;;22.80;99.90;;;24.22;52.42;99156.75;5041809;27;119095;-79
2022/06/23 09:09:20;;;;;;;2.85;1.63;;;22.80;99.90;;;24.01;51.83;99161.34;5060545;27;114325;-79
2022/06/23 09:12:00;;;;;;;3.40;1.48;;;22.60;99.90;;;24.00;53.02;99162.53;5042657;27;129712;-81
2022/06/23 09:15:09;;;;;;;4.30;2.15;;;22.60;99.90;;;24.14;52.45;99161.59;5039798;27;130532;-78
2022/06/23 09:18:15;;;;;;;3.03;1.75;;;22.70;99.90;;;25.31;49.81;99154.22;5019803;27;118224;-78
2022/06/23 09:21:11;;;;;;;3.03;1.77;;;23.60;99.90;;;25.27;45.44;99164.56;5040361;27;114717;-75
2022/06/23 09:24:26;;;;;;;5.43;2.13;;;23.60;99.90;;;24.96;47.24;99159.03;5042768;27;130001;-75
2022/06/23 09:27:03;;;;;;;4.97;1.80;;;23.30;99.90;;;25.02;48.08;99160.16;5024848;27;129476;-77
2022/06/23 09:29:55;;;;;;;3.33;1.73;;;23.10;99.90;;;24.49;51.00;99159.59;5043249;27;118694;-77
2022/06/23 09:32:42;;;;;;;5.18;1.80;;;22.90;99.90;;;24.10;50.42;99165.59;5043654;27;115241;-78
2022/06/23 09:36:03;;;;;;;3.53;1.95;;;22.70;99.90;;;23.82;50.15;99176.50;5042787;27;130155;-77
2022/06/23 09:39:06;;;;;;;2.58;1.70;;;22.50;99.90;;;23.84;49.20;99170.56;5033095;27;129910;-76
2022/06/23 09:42:01;;;;;;;2.22;1.50;;;22.50;99.90;;;23.90;51.18;99174.47;5002593;28;119540;-76
2022/06/23 09:45:01;;;;;;;3.28;1.90;;;22.60;99.90;;;24.40;51.44;99171.22;5002692;28;116223;-78
2022/06/23 09:48:06;;;;;;;5.43;1.77;;;23.00;99.90;;;24.25;48.06;99172.56;5000563;28;129960;-77
2022/06/23 09:51:11;;;;;;;3.15;1.80;;;22.70;99.90;;;24.29;47.96;99173.28;5002423;28;129674;-76
2022/06/23 09:54:31;;;;;;;2.58;1.70;;;22.90;99.90;;;24.15;48.49;99173.47;5009327;28;118787;-78
2022/06/23 09:57:26;;;;;;;3.72;1.63;;;22.80;99.90;;;23.88;50.13;99176.88;4989695;28;114388;-75
2022/06/23 10:00:09;;;;;;;3.33;1.80;;;22.40;99.90;;;23.56;51.19;99183.47;5007035;28;130335;-79
2022/06/23 10:03:15;;;;;;;3.08;1.73;;;22.20;99.90;;;23.89;48.91;99178.47;5003971;28;129656;-76
2022/06/23 10:06:05;;;;;;;3.88;1.80;;;22.50;99.90;;;23.79;50.78;99176.53;4947999;28;118302;-77
2022/06/23 10:08:46;;;;;;;2.75;1.70;;;22.50;99.90;;;24.33;48.63;99181.59;5002416;28;115318;-78
2022/06/23 10:11:51;;;;;;;6.10;1.90;;;22.80;99.90;;;25.05;47.38;99178.75;4984164;28;129922;-76
2022/06/23 10:14:49;;;;;;;3.03;1.90;;;23.50;99.90;;;25.45;46.97;99173.44;4970833;28;129001;-75
2022/06/23 10:18:00;;;;;;;3.95;1.70;;;23.80;99.90;;;25.95;47.60;99177.38;5003941;28;117565;-78
2022/06/23 10:20:50;;;;;;;3.25;1.80;;;23.90;99.90;;;26.15;43.06;99176.66;5002426;28;115011;-77
2022/06/23 10:23:45;;;;;;;2.55;1.52;;;24.10;99.90;;;26.06;41.97;99182.78;5002078;28;130094;-77
2022/06/23 10:26:37;;;;;;;2.97;1.67;;;24.20;99.90;;;25.33;44.54;99176.00;4976909;28;128716;-80
2022/06/23 10:30:04;;;;;;;3.65;1.60;;;23.90;99.90;;;24.71;44.37;99199.03;4970793;28;117585;-79
2022/06/23 10:33:32;;;;;;;3.00;1.50;;;23.40;99.90;;;24.19;46.56;99191.63;4990534;28;114318;-78
2022/06/23 10:36:39;;;;;;;2.45;1.50;;;22.90;99.90;;;24.00;48.07;99178.38;4942900;28;129819;-78
2022/06/23 10:39:29;;;;;;;2.53;1.63;;;22.70;99.90;;;24.52;45.58;99180.19;5017835;27;129246;-75
2022/06/23 10:42:30;;;;;;;4.47;1.88;;;23.10;99.90;;;25.09;45.02;99173.94;5025839;27;118049;-79
2022/06/23 10:45:21;;;;;;;4.00;1.70;;;23.70;99.90;;;25.00;46.13;99173.66;5042434;27;115571;-77
2022/06/23 10:48:30;;;;;;;3.55;1.50;;;23.60;99.90;;;25.54;44.44;99170.13;5026839;27;128692;-77
2022/06/23 10:51:15;;;;;;;3.35;1.70;;;24.00;99.90;;;25.00;43.04;99176.44;5021162;27;129439;-72
2022/06/23 10:54:34;;;;;;;3.47;1.40;;;23.60;99.90;;;24.83;41.94;99188.56;5042299;27;119036;-74
2022/06/23 10:57:28;;;;;;;5.57;1.90;;;23.60;99.90;;;24.57;43.98;99188.06;5006482;27;113686;-78
2022/06/23 11:00:09;;;;;;;2.72;1.65;;;23.40;99.90;;;24.17;44.81;99193.25;5026820;27;130518;-76
2022/06/23 11:03:44;;;;;;;2.80;1.52;;;23.00;99.90;;;23.85;45.64;99194.31;5041748;27;130336;-78
2022/06/23 11:06:32;;;;;;;3.85;1.77;;;22.70;99.90;;;24.58;44.43;99192.44;4962458;28;118614;-78
2022/06/23 11:09:33;;;;;;;2.97;1.85;;;23.30;99.90;;;23.97;45.56;99191.06;4945410;28;114964;-76
2022/06/23 11:12:16;;;;;;;2.97;1.70;;;23.00;99.90;;;24.23;46.55;99191.59;4995577;27;129583;-76
2022/06/23 11:15:01;;;;;;;2.92;1.70;;;23.10;99.90;;;24.49;43.58;99192.88;5024833;27;128106;-81
2022/06/23 11:18:01;;;;;;;3.30;1.65;;;23.20;99.90;;;24.53;44.71;99182.56;5026290;27;117892;-77
2022/06/23 11:20:44;;;;;;;2.95;1.58;;;23.30;99.90;;;24.91;44.82;99178.94;5041445;27;115076;-78